ドバイ の空港の天気 - METARとTAF

ドバイ国際空港 ( OMDB / DXB ) - アラブ首長国連邦 ドバイ
飛行場実況気象(Metar)
観測時間10/21 19:00 GST (10/21 15:00 UTC)
風向・風速北東 4m/s
視程10km以上
天気現象
なし
気温31℃
湿度36%
気圧1011hPa
METAROMDB 211500Z 04007KT 010V070 CAVOK 31/14 Q1011 NOSIG
過去の天気等 Google飛行場航空写真 Wunderground天気予報

過去48時間のMETAR

飛行場予報(TAF)
発表時間: 10/21 15:00 GST (10/21 11:00 UTC)
予報対象時間: 21日16時 GST ~ 22日22時 GST
風向・風速北 5m/s
視程10km以上
なし
21日19時 GST ~ 21日21時 GST に徐々に
風向・風速東南東 3m/s
22日11時 GST ~ 22日13時 GST に徐々に
風向・風速北西 5m/s
22日20時 GST ~ 22日22時 GST に徐々に
風向・風速南東 3m/s
TAF OMDB 211100Z 2112/2218 35010KT CAVOK
BECMG 2115/2117 11005KT
BECMG 2207/2209 32010KT
BECMG 2216/2218 14005KT